sensor_id;sensor_type;location;lat;lon;timestamp;P1;durP1;ratioP1;P2;durP2;ratioP2
62024;SDS011;47978;49.118;12.146;2023-07-13T00:03:14;12.15;;;7.47;;
62024;SDS011;47978;49.118;12.146;2023-07-13T00:07:16;14.30;;;7.00;;
62024;SDS011;47978;49.118;12.146;2023-07-13T00:11:19;14.20;;;7.37;;
62024;SDS011;47978;49.118;12.146;2023-07-13T00:19:23;10.43;;;6.37;;
62024;SDS011;47978;49.118;12.146;2023-07-13T00:23:25;10.00;;;6.73;;
62024;SDS011;47978;49.118;12.146;2023-07-13T00:27:28;10.82;;;6.05;;
62024;SDS011;47978;49.118;12.146;2023-07-13T00:31:30;12.45;;;7.85;;
62024;SDS011;47978;49.118;12.146;2023-07-13T00:35:31;16.65;;;8.45;;
62024;SDS011;47978;49.118;12.146;2023-07-13T00:39:33;12.07;;;6.35;;
62024;SDS011;47978;49.118;12.146;2023-07-13T00:43:37;9.90;;;6.57;;
62024;SDS011;47978;49.118;12.146;2023-07-13T00:51:41;11.07;;;6.78;;
62024;SDS011;47978;49.118;12.146;2023-07-13T00:55:45;11.00;;;7.10;;
62024;SDS011;47978;49.118;12.146;2023-07-13T00:59:51;13.75;;;6.88;;
62024;SDS011;47978;49.118;12.146;2023-07-13T01:03:55;10.77;;;6.65;;
62024;SDS011;47978;49.118;12.146;2023-07-13T01:07:56;11.23;;;6.60;;
62024;SDS011;47978;49.118;12.146;2023-07-13T01:11:59;13.00;;;7.30;;
62024;SDS011;47978;49.118;12.146;2023-07-13T01:16:02;11.25;;;6.72;;
62024;SDS011;47978;49.118;12.146;2023-07-13T01:20:11;10.77;;;5.50;;
62024;SDS011;47978;49.118;12.146;2023-07-13T01:24:14;8.57;;;5.63;;
62024;SDS011;47978;49.118;12.146;2023-07-13T01:32:17;10.50;;;6.15;;
62024;SDS011;47978;49.118;12.146;2023-07-13T01:36:20;10.10;;;5.78;;
62024;SDS011;47978;49.118;12.146;2023-07-13T01:40:23;12.40;;;6.80;;
62024;SDS011;47978;49.118;12.146;2023-07-13T01:44:25;9.30;;;6.18;;
62024;SDS011;47978;49.118;12.146;2023-07-13T01:48:27;10.98;;;6.18;;
62024;SDS011;47978;49.118;12.146;2023-07-13T01:52:29;9.82;;;5.60;;
62024;SDS011;47978;49.118;12.146;2023-07-13T01:56:32;8.40;;;6.13;;
62024;SDS011;47978;49.118;12.146;2023-07-13T02:04:35;14.70;;;6.50;;
62024;SDS011;47978;49.118;12.146;2023-07-13T02:08:37;9.70;;;6.78;;
62024;SDS011;47978;49.118;12.146;2023-07-13T02:12:40;17.58;;;6.78;;
62024;SDS011;47978;49.118;12.146;2023-07-13T02:16:42;10.13;;;5.95;;
62024;SDS011;47978;49.118;12.146;2023-07-13T02:20:44;8.85;;;5.93;;
62024;SDS011;47978;49.118;12.146;2023-07-13T02:24:46;11.32;;;6.13;;
62024;SDS011;47978;49.118;12.146;2023-07-13T02:28:49;12.10;;;6.50;;
62024;SDS011;47978;49.118;12.146;2023-07-13T02:36:52;10.50;;;6.00;;
62024;SDS011;47978;49.118;12.146;2023-07-13T02:40:53;10.98;;;5.75;;
62024;SDS011;47978;49.118;12.146;2023-07-13T02:44:56;15.95;;;6.60;;
62024;SDS011;47978;49.118;12.146;2023-07-13T02:52:59;11.48;;;6.45;;
62024;SDS011;47978;49.118;12.146;2023-07-13T02:57:01;12.90;;;6.60;;
62024;SDS011;47978;49.118;12.146;2023-07-13T03:01:07;10.10;;;6.53;;
62024;SDS011;47978;49.118;12.146;2023-07-13T03:05:10;13.50;;;7.93;;
62024;SDS011;47978;49.118;12.146;2023-07-13T03:09:11;19.95;;;6.72;;
62024;SDS011;47978;49.118;12.146;2023-07-13T03:13:13;8.77;;;6.57;;
62024;SDS011;47978;49.118;12.146;2023-07-13T03:17:16;10.88;;;7.30;;
62024;SDS011;47978;49.118;12.146;2023-07-13T03:21:17;22.30;;;11.07;;
62024;SDS011;47978;49.118;12.146;2023-07-13T03:25:19;10.55;;;7.20;;
62024;SDS011;47978;49.118;12.146;2023-07-13T03:29:21;12.82;;;6.25;;
62024;SDS011;47978;49.118;12.146;2023-07-13T03:33:24;15.07;;;6.95;;
62024;SDS011;47978;49.118;12.146;2023-07-13T03:41:27;9.82;;;7.13;;
62024;SDS011;47978;49.118;12.146;2023-07-13T03:45:28;13.20;;;6.95;;
62024;SDS011;47978;49.118;12.146;2023-07-13T03:49:31;10.05;;;6.90;;
62024;SDS011;47978;49.118;12.146;2023-07-13T03:57:35;10.52;;;6.68;;
62024;SDS011;47978;49.118;12.146;2023-07-13T04:01:39;11.82;;;6.97;;
62024;SDS011;47978;49.118;12.146;2023-07-13T04:05:43;12.77;;;6.78;;
62024;SDS011;47978;49.118;12.146;2023-07-13T04:09:44;9.65;;;6.85;;
62024;SDS011;47978;49.118;12.146;2023-07-13T04:13:46;10.43;;;6.72;;
62024;SDS011;47978;49.118;12.146;2023-07-13T04:17:48;10.35;;;6.82;;
62024;SDS011;47978;49.118;12.146;2023-07-13T04:21:51;9.27;;;6.80;;
62024;SDS011;47978;49.118;12.146;2023-07-13T04:25:53;10.30;;;6.53;;
62024;SDS011;47978;49.118;12.146;2023-07-13T04:29:55;10.05;;;6.25;;
62024;SDS011;47978;49.118;12.146;2023-07-13T04:33:56;15.32;;;6.53;;
62024;SDS011;47978;49.118;12.146;2023-07-13T04:37:59;10.68;;;6.75;;
62024;SDS011;47978;49.118;12.146;2023-07-13T04:42:01;11.65;;;6.28;;
62024;SDS011;47978;49.118;12.146;2023-07-13T04:46:03;10.18;;;6.25;;
62024;SDS011;47978;49.118;12.146;2023-07-13T04:50:06;8.90;;;5.78;;
62024;SDS011;47978;49.118;12.146;2023-07-13T04:54:10;13.23;;;7.63;;
62024;SDS011;47978;49.118;12.146;2023-07-13T05:02:14;8.07;;;6.05;;
62024;SDS011;47978;49.118;12.146;2023-07-13T05:06:15;9.73;;;5.22;;
62024;SDS011;47978;49.118;12.146;2023-07-13T05:10:19;6.47;;;5.07;;
62024;SDS011;47978;49.118;12.146;2023-07-13T05:14:20;8.52;;;5.47;;
62024;SDS011;47978;49.118;12.146;2023-07-13T05:18:22;9.38;;;5.25;;
62024;SDS011;47978;49.118;12.146;2023-07-13T05:22:23;7.57;;;4.60;;
62024;SDS011;47978;49.118;12.146;2023-07-13T05:26:26;8.40;;;5.38;;
62024;SDS011;47978;49.118;12.146;2023-07-13T05:30:28;7.82;;;4.32;;
62024;SDS011;47978;49.118;12.146;2023-07-13T05:34:30;10.25;;;4.07;;
62024;SDS011;47978;49.118;12.146;2023-07-13T05:38:31;8.40;;;3.85;;
62024;SDS011;47978;49.118;12.146;2023-07-13T05:42:34;7.97;;;3.80;;
62024;SDS011;47978;49.118;12.146;2023-07-13T05:46:36;6.20;;;3.45;;
62024;SDS011;47978;49.118;12.146;2023-07-13T05:50:38;13.85;;;3.85;;
62024;SDS011;47978;49.118;12.146;2023-07-13T05:54:39;6.78;;;3.03;;
62024;SDS011;47978;49.118;12.146;2023-07-13T05:58:42;7.85;;;3.78;;
62024;SDS011;47978;49.118;12.146;2023-07-13T06:02:44;8.75;;;3.13;;
62024;SDS011;47978;49.118;12.146;2023-07-13T06:06:45;9.23;;;3.00;;
62024;SDS011;47978;49.118;12.146;2023-07-13T06:10:47;9.25;;;4.05;;
62024;SDS011;47978;49.118;12.146;2023-07-13T06:14:50;11.45;;;3.17;;
62024;SDS011;47978;49.118;12.146;2023-07-13T06:18:51;4.60;;;2.80;;
62024;SDS011;47978;49.118;12.146;2023-07-13T06:22:53;9.88;;;2.85;;
62024;SDS011;47978;49.118;12.146;2023-07-13T06:26:55;5.57;;;2.97;;
62024;SDS011;47978;49.118;12.146;2023-07-13T06:30:58;4.90;;;2.60;;
62024;SDS011;47978;49.118;12.146;2023-07-13T06:35:00;5.25;;;2.50;;
62024;SDS011;47978;49.118;12.146;2023-07-13T06:39:02;5.10;;;2.42;;
62024;SDS011;47978;49.118;12.146;2023-07-13T06:43:04;4.07;;;2.60;;
62024;SDS011;47978;49.118;12.146;2023-07-13T06:47:07;6.00;;;2.15;;
62024;SDS011;47978;49.118;12.146;2023-07-13T06:51:09;6.45;;;3.00;;
62024;SDS011;47978;49.118;12.146;2023-07-13T06:55:11;4.13;;;2.42;;
62024;SDS011;47978;49.118;12.146;2023-07-13T06:59:12;7.55;;;2.17;;
62024;SDS011;47978;49.118;12.146;2023-07-13T07:03:15;5.40;;;2.05;;
62024;SDS011;47978;49.118;12.146;2023-07-13T07:07:17;3.10;;;1.77;;
62024;SDS011;47978;49.118;12.146;2023-07-13T07:11:19;5.13;;;1.87;;
62024;SDS011;47978;49.118;12.146;2023-07-13T07:15:23;4.40;;;2.13;;
62024;SDS011;47978;49.118;12.146;2023-07-13T07:19:25;9.90;;;2.25;;
62024;SDS011;47978;49.118;12.146;2023-07-13T07:23:27;3.30;;;1.85;;
62024;SDS011;47978;49.118;12.146;2023-07-13T07:27:29;9.20;;;1.98;;
62024;SDS011;47978;49.118;12.146;2023-07-13T07:31:33;2.72;;;1.88;;
62024;SDS011;47978;49.118;12.146;2023-07-13T07:35:39;4.10;;;1.90;;
62024;SDS011;47978;49.118;12.146;2023-07-13T07:44:05;5.05;;;1.85;;
62024;SDS011;47978;49.118;12.146;2023-07-13T07:48:07;6.05;;;2.10;;
62024;SDS011;47978;49.118;12.146;2023-07-13T07:52:10;3.00;;;1.87;;
62024;SDS011;47978;49.118;12.146;2023-07-13T07:56:11;3.33;;;1.73;;
62024;SDS011;47978;49.118;12.146;2023-07-13T08:00:16;5.70;;;1.80;;
62024;SDS011;47978;49.118;12.146;2023-07-13T08:04:21;3.47;;;1.85;;
62024;SDS011;47978;49.118;12.146;2023-07-13T08:08:27;4.10;;;2.00;;
62024;SDS011;47978;49.118;12.146;2023-07-13T08:12:28;3.95;;;1.90;;
62024;SDS011;47978;49.118;12.146;2023-07-13T08:16:33;6.05;;;1.70;;
62024;SDS011;47978;49.118;12.146;2023-07-13T08:20:36;4.30;;;2.00;;
62024;SDS011;47978;49.118;12.146;2023-07-13T08:24:39;4.45;;;1.50;;
62024;SDS011;47978;49.118;12.146;2023-07-13T08:28:41;4.28;;;1.80;;
62024;SDS011;47978;49.118;12.146;2023-07-13T08:32:43;5.57;;;1.77;;
62024;SDS011;47978;49.118;12.146;2023-07-13T08:36:44;7.70;;;1.92;;
62024;SDS011;47978;49.118;12.146;2023-07-13T08:40:50;2.47;;;1.65;;
62024;SDS011;47978;49.118;12.146;2023-07-13T08:44:55;3.15;;;1.67;;
62024;SDS011;47978;49.118;12.146;2023-07-13T08:49:03;3.22;;;1.80;;
62024;SDS011;47978;49.118;12.146;2023-07-13T08:53:07;2.63;;;1.70;;
62024;SDS011;47978;49.118;12.146;2023-07-13T08:57:19;5.72;;;2.22;;
62024;SDS011;47978;49.118;12.146;2023-07-13T09:01:24;2.50;;;1.60;;
62024;SDS011;47978;49.118;12.146;2023-07-13T09:05:33;1.33;;;1.23;;
62024;SDS011;47978;49.118;12.146;2023-07-13T09:09:46;4.10;;;1.92;;
62024;SDS011;47978;49.118;12.146;2023-07-13T09:14:01;4.53;;;1.90;;
62024;SDS011;47978;49.118;12.146;2023-07-13T09:18:09;8.73;;;1.92;;
62024;SDS011;47978;49.118;12.146;2023-07-13T09:22:16;3.20;;;1.85;;
62024;SDS011;47978;49.118;12.146;2023-07-13T09:26:21;3.22;;;1.52;;
62024;SDS011;47978;49.118;12.146;2023-07-13T09:30:27;5.50;;;1.60;;
62024;SDS011;47978;49.118;12.146;2023-07-13T09:34:35;2.42;;;1.48;;
62024;SDS011;47978;49.118;12.146;2023-07-13T09:38:36;3.58;;;1.33;;
62024;SDS011;47978;49.118;12.146;2023-07-13T09:42:38;4.18;;;1.63;;
62024;SDS011;47978;49.118;12.146;2023-07-13T09:46:43;3.55;;;1.58;;
62024;SDS011;47978;49.118;12.146;2023-07-13T09:50:46;3.80;;;1.60;;
62024;SDS011;47978;49.118;12.146;2023-07-13T09:54:49;4.85;;;1.88;;
62024;SDS011;47978;49.118;12.146;2023-07-13T09:58:51;6.00;;;1.40;;
62024;SDS011;47978;49.118;12.146;2023-07-13T10:03:04;2.38;;;1.17;;
62024;SDS011;47978;49.118;12.146;2023-07-13T10:07:14;2.22;;;1.50;;
62024;SDS011;47978;49.118;12.146;2023-07-13T10:11:29;3.65;;;1.90;;
62024;SDS011;47978;49.118;12.146;2023-07-13T10:15:31;3.75;;;1.58;;
62024;SDS011;47978;49.118;12.146;2023-07-13T10:19:35;3.25;;;1.50;;
62024;SDS011;47978;49.118;12.146;2023-07-13T10:23:36;2.10;;;1.30;;
62024;SDS011;47978;49.118;12.146;2023-07-13T10:27:38;4.30;;;1.30;;
62024;SDS011;47978;49.118;12.146;2023-07-13T10:31:40;2.63;;;1.50;;
62024;SDS011;47978;49.118;12.146;2023-07-13T10:35:44;3.95;;;1.70;;
62024;SDS011;47978;49.118;12.146;2023-07-13T10:39:46;4.90;;;1.58;;
62024;SDS011;47978;49.118;12.146;2023-07-13T10:43:49;2.05;;;1.30;;
62024;SDS011;47978;49.118;12.146;2023-07-13T10:47:53;3.28;;;1.50;;
62024;SDS011;47978;49.118;12.146;2023-07-13T10:51:58;4.03;;;1.42;;
62024;SDS011;47978;49.118;12.146;2023-07-13T10:56:00;5.30;;;1.50;;
62024;SDS011;47978;49.118;12.146;2023-07-13T11:00:14;4.93;;;1.55;;
62024;SDS011;47978;49.118;12.146;2023-07-13T11:04:17;5.40;;;1.65;;
62024;SDS011;47978;49.118;12.146;2023-07-13T11:08:32;7.97;;;1.40;;
62024;SDS011;47978;49.118;12.146;2023-07-13T11:12:51;3.92;;;1.60;;
62024;SDS011;47978;49.118;12.146;2023-07-13T11:16:54;4.72;;;1.58;;
62024;SDS011;47978;49.118;12.146;2023-07-13T11:25:33;2.55;;;1.20;;
62024;SDS011;47978;49.118;12.146;2023-07-13T11:29:36;1.83;;;1.10;;
62024;SDS011;47978;49.118;12.146;2023-07-13T11:33:49;2.00;;;1.35;;
62024;SDS011;47978;49.118;12.146;2023-07-13T11:37:53;3.08;;;1.38;;
62024;SDS011;47978;49.118;12.146;2023-07-13T11:41:57;7.20;;;1.50;;
62024;SDS011;47978;49.118;12.146;2023-07-13T11:46:14;2.20;;;1.35;;
62024;SDS011;47978;49.118;12.146;2023-07-13T11:50:18;2.90;;;1.35;;
62024;SDS011;47978;49.118;12.146;2023-07-13T11:54:25;4.30;;;1.35;;
62024;SDS011;47978;49.118;12.146;2023-07-13T11:58:30;2.88;;;1.20;;
62024;SDS011;47978;49.118;12.146;2023-07-13T12:02:31;2.53;;;1.13;;
62024;SDS011;47978;49.118;12.146;2023-07-13T12:06:35;2.47;;;0.90;;
62024;SDS011;47978;49.118;12.146;2023-07-13T12:10:37;2.33;;;1.20;;
62024;SDS011;47978;49.118;12.146;2023-07-13T12:14:40;7.40;;;1.10;;
62024;SDS011;47978;49.118;12.146;2023-07-13T12:18:42;3.00;;;1.30;;
62024;SDS011;47978;49.118;12.146;2023-07-13T12:22:45;2.20;;;1.00;;
62024;SDS011;47978;49.118;12.146;2023-07-13T12:26:50;2.08;;;1.00;;
62024;SDS011;47978;49.118;12.146;2023-07-13T12:30:54;2.17;;;1.10;;
62024;SDS011;47978;49.118;12.146;2023-07-13T12:35:04;2.15;;;1.05;;
62024;SDS011;47978;49.118;12.146;2023-07-13T12:39:16;2.30;;;1.27;;
62024;SDS011;47978;49.118;12.146;2023-07-13T12:43:20;1.17;;;1.00;;
62024;SDS011;47978;49.118;12.146;2023-07-13T12:47:24;2.03;;;0.93;;
62024;SDS011;47978;49.118;12.146;2023-07-13T12:51:27;3.08;;;1.17;;
62024;SDS011;47978;49.118;12.146;2023-07-13T12:55:29;6.22;;;1.38;;
62024;SDS011;47978;49.118;12.146;2023-07-13T12:59:32;1.77;;;1.02;;
62024;SDS011;47978;49.118;12.146;2023-07-13T13:03:35;3.22;;;1.27;;
62024;SDS011;47978;49.118;12.146;2023-07-13T13:07:39;1.67;;;1.10;;
62024;SDS011;47978;49.118;12.146;2023-07-13T13:11:41;3.10;;;1.98;;
62024;SDS011;47978;49.118;12.146;2023-07-13T13:15:43;2.17;;;1.15;;
62024;SDS011;47978;49.118;12.146;2023-07-13T13:19:46;1.70;;;1.10;;
62024;SDS011;47978;49.118;12.146;2023-07-13T13:23:47;1.75;;;1.10;;
62024;SDS011;47978;49.118;12.146;2023-07-13T13:27:49;2.80;;;1.25;;
62024;SDS011;47978;49.118;12.146;2023-07-13T13:31:51;2.13;;;1.02;;
62024;SDS011;47978;49.118;12.146;2023-07-13T13:35:54;2.97;;;1.10;;
62024;SDS011;47978;49.118;12.146;2023-07-13T13:39:56;3.70;;;1.30;;
62024;SDS011;47978;49.118;12.146;2023-07-13T13:44:09;2.53;;;1.08;;
62024;SDS011;47978;49.118;12.146;2023-07-13T13:48:15;3.83;;;1.23;;
62024;SDS011;47978;49.118;12.146;2023-07-13T13:52:20;2.20;;;0.90;;
62024;SDS011;47978;49.118;12.146;2023-07-13T13:56:22;2.10;;;1.20;;
62024;SDS011;47978;49.118;12.146;2023-07-13T14:00:23;2.50;;;1.20;;
62024;SDS011;47978;49.118;12.146;2023-07-13T14:04:25;1.95;;;1.15;;
62024;SDS011;47978;49.118;12.146;2023-07-13T14:08:28;5.30;;;1.00;;
62024;SDS011;47978;49.118;12.146;2023-07-13T14:12:30;2.63;;;1.30;;
62024;SDS011;47978;49.118;12.146;2023-07-13T14:16:32;3.40;;;1.00;;
62024;SDS011;47978;49.118;12.146;2023-07-13T14:24:37;2.17;;;1.13;;
62024;SDS011;47978;49.118;12.146;2023-07-13T14:28:39;1.95;;;1.02;;
62024;SDS011;47978;49.118;12.146;2023-07-13T14:32:43;3.25;;;1.13;;
62024;SDS011;47978;49.118;12.146;2023-07-13T14:36:47;2.83;;;1.08;;
62024;SDS011;47978;49.118;12.146;2023-07-13T14:40:51;2.28;;;1.20;;
62024;SDS011;47978;49.118;12.146;2023-07-13T14:44:52;3.50;;;1.20;;
62024;SDS011;47978;49.118;12.146;2023-07-13T14:48:59;3.08;;;1.10;;
62024;SDS011;47978;49.118;12.146;2023-07-13T14:53:03;5.82;;;1.35;;
62024;SDS011;47978;49.118;12.146;2023-07-13T14:57:07;4.50;;;1.33;;
62024;SDS011;47978;49.118;12.146;2023-07-13T15:01:11;3.25;;;1.30;;
62024;SDS011;47978;49.118;12.146;2023-07-13T15:05:15;3.25;;;1.30;;
62024;SDS011;47978;49.118;12.146;2023-07-13T15:09:19;6.57;;;1.42;;
62024;SDS011;47978;49.118;12.146;2023-07-13T15:13:21;4.20;;;1.33;;
62024;SDS011;47978;49.118;12.146;2023-07-13T15:17:24;1.77;;;0.95;;
62024;SDS011;47978;49.118;12.146;2023-07-13T15:21:38;1.90;;;1.08;;
62024;SDS011;47978;49.118;12.146;2023-07-13T15:25:40;2.05;;;1.02;;
62024;SDS011;47978;49.118;12.146;2023-07-13T15:29:44;1.98;;;1.05;;
62024;SDS011;47978;49.118;12.146;2023-07-13T15:33:45;4.68;;;1.23;;
62024;SDS011;47978;49.118;12.146;2023-07-13T15:37:48;3.67;;;1.08;;
62024;SDS011;47978;49.118;12.146;2023-07-13T15:41:50;1.85;;;1.00;;
62024;SDS011;47978;49.118;12.146;2023-07-13T15:45:54;3.35;;;1.42;;
62024;SDS011;47978;49.118;12.146;2023-07-13T15:49:56;2.05;;;1.20;;
62024;SDS011;47978;49.118;12.146;2023-07-13T15:53:58;4.00;;;1.50;;
62024;SDS011;47978;49.118;12.146;2023-07-13T15:58:01;3.03;;;1.60;;
62024;SDS011;47978;49.118;12.146;2023-07-13T16:02:08;4.10;;;1.48;;
62024;SDS011;47978;49.118;12.146;2023-07-13T16:06:14;2.97;;;1.40;;
62024;SDS011;47978;49.118;12.146;2023-07-13T16:10:19;3.55;;;1.75;;
62024;SDS011;47978;49.118;12.146;2023-07-13T16:14:23;4.75;;;1.92;;
62024;SDS011;47978;49.118;12.146;2023-07-13T16:18:26;6.55;;;3.80;;
62024;SDS011;47978;49.118;12.146;2023-07-13T16:22:28;2.85;;;1.92;;
62024;SDS011;47978;49.118;12.146;2023-07-13T16:26:30;4.40;;;1.93;;
62024;SDS011;47978;49.118;12.146;2023-07-13T16:30:33;9.43;;;5.00;;
62024;SDS011;47978;49.118;12.146;2023-07-13T16:34:37;7.90;;;3.03;;
62024;SDS011;47978;49.118;12.146;2023-07-13T16:38:40;3.80;;;1.70;;
62024;SDS011;47978;49.118;12.146;2023-07-13T16:42:41;3.15;;;1.55;;
62024;SDS011;47978;49.118;12.146;2023-07-13T16:46:43;2.80;;;1.20;;
62024;SDS011;47978;49.118;12.146;2023-07-13T16:50:52;2.63;;;1.55;;
62024;SDS011;47978;49.118;12.146;2023-07-13T16:54:55;3.22;;;1.40;;
62024;SDS011;47978;49.118;12.146;2023-07-13T16:58:57;3.50;;;1.60;;
62024;SDS011;47978;49.118;12.146;2023-07-13T17:02:59;4.00;;;1.50;;
62024;SDS011;47978;49.118;12.146;2023-07-13T17:07:03;3.00;;;1.45;;
62024;SDS011;47978;49.118;12.146;2023-07-13T17:11:04;5.05;;;1.80;;
62024;SDS011;47978;49.118;12.146;2023-07-13T17:15:08;1.88;;;1.20;;
62024;SDS011;47978;49.118;12.146;2023-07-13T17:19:11;2.08;;;1.23;;
62024;SDS011;47978;49.118;12.146;2023-07-13T17:23:15;3.63;;;1.63;;
62024;SDS011;47978;49.118;12.146;2023-07-13T17:27:19;3.72;;;1.50;;
62024;SDS011;47978;49.118;12.146;2023-07-13T17:31:20;2.47;;;1.08;;
62024;SDS011;47978;49.118;12.146;2023-07-13T17:35:23;3.00;;;1.20;;
62024;SDS011;47978;49.118;12.146;2023-07-13T17:39:27;3.67;;;1.20;;
62024;SDS011;47978;49.118;12.146;2023-07-13T17:43:29;3.65;;;1.40;;
62024;SDS011;47978;49.118;12.146;2023-07-13T17:47:30;2.25;;;1.40;;
62024;SDS011;47978;49.118;12.146;2023-07-13T17:51:32;5.18;;;1.55;;
62024;SDS011;47978;49.118;12.146;2023-07-13T17:55:35;2.17;;;1.38;;
62024;SDS011;47978;49.118;12.146;2023-07-13T17:59:37;3.20;;;1.27;;
62024;SDS011;47978;49.118;12.146;2023-07-13T18:03:39;3.60;;;1.40;;
62024;SDS011;47978;49.118;12.146;2023-07-13T18:07:42;1.98;;;1.20;;
62024;SDS011;47978;49.118;12.146;2023-07-13T18:11:45;3.50;;;1.30;;
62024;SDS011;47978;49.118;12.146;2023-07-13T18:15:47;4.70;;;1.55;;
62024;SDS011;47978;49.118;12.146;2023-07-13T18:19:49;3.10;;;1.00;;
62024;SDS011;47978;49.118;12.146;2023-07-13T18:23:51;2.53;;;1.23;;
62024;SDS011;47978;49.118;12.146;2023-07-13T18:27:54;4.57;;;1.47;;
62024;SDS011;47978;49.118;12.146;2023-07-13T18:31:56;5.35;;;1.92;;
62024;SDS011;47978;49.118;12.146;2023-07-13T18:35:58;1.87;;;1.23;;
62024;SDS011;47978;49.118;12.146;2023-07-13T18:40:02;5.50;;;1.50;;
62024;SDS011;47978;49.118;12.146;2023-07-13T18:44:07;4.30;;;1.40;;
62024;SDS011;47978;49.118;12.146;2023-07-13T18:48:10;4.07;;;1.30;;
62024;SDS011;47978;49.118;12.146;2023-07-13T18:52:16;2.20;;;1.58;;
62024;SDS011;47978;49.118;12.146;2023-07-13T18:56:19;2.35;;;1.20;;
62024;SDS011;47978;49.118;12.146;2023-07-13T19:00:22;2.78;;;1.55;;
62024;SDS011;47978;49.118;12.146;2023-07-13T19:04:28;4.10;;;1.60;;
62024;SDS011;47978;49.118;12.146;2023-07-13T19:08:31;8.48;;;1.67;;
62024;SDS011;47978;49.118;12.146;2023-07-13T19:12:33;2.37;;;1.50;;
62024;SDS011;47978;49.118;12.146;2023-07-13T19:16:36;2.58;;;1.45;;
62024;SDS011;47978;49.118;12.146;2023-07-13T19:24:40;3.17;;;1.60;;
62024;SDS011;47978;49.118;12.146;2023-07-13T19:28:42;3.78;;;1.73;;
62024;SDS011;47978;49.118;12.146;2023-07-13T19:32:46;3.25;;;1.60;;
62024;SDS011;47978;49.118;12.146;2023-07-13T19:36:48;5.20;;;1.60;;
62024;SDS011;47978;49.118;12.146;2023-07-13T19:40:53;3.65;;;1.60;;
62024;SDS011;47978;49.118;12.146;2023-07-13T19:44:55;3.55;;;2.00;;
62024;SDS011;47978;49.118;12.146;2023-07-13T19:48:59;3.50;;;1.95;;
62024;SDS011;47978;49.118;12.146;2023-07-13T19:53:02;3.08;;;1.70;;
62024;SDS011;47978;49.118;12.146;2023-07-13T19:57:03;3.30;;;1.50;;
62024;SDS011;47978;49.118;12.146;2023-07-13T20:01:05;3.50;;;1.92;;
62024;SDS011;47978;49.118;12.146;2023-07-13T20:05:08;2.50;;;1.63;;
62024;SDS011;47978;49.118;12.146;2023-07-13T20:09:11;2.67;;;1.67;;
62024;SDS011;47978;49.118;12.146;2023-07-13T20:13:32;2.97;;;1.77;;
62024;SDS011;47978;49.118;12.146;2023-07-13T20:17:34;4.22;;;1.88;;
62024;SDS011;47978;49.118;12.146;2023-07-13T20:21:39;3.08;;;1.77;;
62024;SDS011;47978;49.118;12.146;2023-07-13T20:25:42;2.58;;;1.75;;
62024;SDS011;47978;49.118;12.146;2023-07-13T20:29:44;2.95;;;1.85;;
62024;SDS011;47978;49.118;12.146;2023-07-13T20:33:46;2.55;;;1.63;;
62024;SDS011;47978;49.118;12.146;2023-07-13T20:37:49;3.63;;;1.77;;
62024;SDS011;47978;49.118;12.146;2023-07-13T20:41:51;3.97;;;2.00;;
62024;SDS011;47978;49.118;12.146;2023-07-13T20:45:55;4.55;;;1.95;;
62024;SDS011;47978;49.118;12.146;2023-07-13T20:49:58;5.35;;;1.90;;
62024;SDS011;47978;49.118;12.146;2023-07-13T20:54:01;4.18;;;1.90;;
62024;SDS011;47978;49.118;12.146;2023-07-13T20:58:02;3.40;;;1.88;;
62024;SDS011;47978;49.118;12.146;2023-07-13T21:02:10;5.82;;;2.10;;
62024;SDS011;47978;49.118;12.146;2023-07-13T21:06:23;4.82;;;2.60;;
62024;SDS011;47978;49.118;12.146;2023-07-13T21:10:26;2.97;;;1.98;;
62024;SDS011;47978;49.118;12.146;2023-07-13T21:14:30;2.78;;;1.80;;
62024;SDS011;47978;49.118;12.146;2023-07-13T21:18:31;2.58;;;1.73;;
62024;SDS011;47978;49.118;12.146;2023-07-13T21:22:33;3.67;;;1.95;;
62024;SDS011;47978;49.118;12.146;2023-07-13T21:26:36;3.67;;;1.77;;
62024;SDS011;47978;49.118;12.146;2023-07-13T21:30:39;3.72;;;1.77;;
62024;SDS011;47978;49.118;12.146;2023-07-13T21:34:42;4.97;;;2.00;;
62024;SDS011;47978;49.118;12.146;2023-07-13T21:38:45;4.00;;;1.80;;
62024;SDS011;47978;49.118;12.146;2023-07-13T21:42:53;5.53;;;1.88;;
62024;SDS011;47978;49.118;12.146;2023-07-13T21:46:55;4.68;;;2.30;;
62024;SDS011;47978;49.118;12.146;2023-07-13T21:50:57;6.65;;;2.13;;
62024;SDS011;47978;49.118;12.146;2023-07-13T21:54:59;3.75;;;2.05;;
62024;SDS011;47978;49.118;12.146;2023-07-13T21:59:03;2.80;;;1.98;;
62024;SDS011;47978;49.118;12.146;2023-07-13T22:03:16;5.20;;;2.22;;
62024;SDS011;47978;49.118;12.146;2023-07-13T22:07:20;4.10;;;2.28;;
62024;SDS011;47978;49.118;12.146;2023-07-13T22:11:22;3.65;;;1.92;;
62024;SDS011;47978;49.118;12.146;2023-07-13T22:15:26;3.47;;;1.92;;
62024;SDS011;47978;49.118;12.146;2023-07-13T22:19:29;3.30;;;1.90;;
62024;SDS011;47978;49.118;12.146;2023-07-13T22:23:31;4.68;;;2.22;;
62024;SDS011;47978;49.118;12.146;2023-07-13T22:27:32;3.22;;;2.13;;
62024;SDS011;47978;49.118;12.146;2023-07-13T22:31:35;7.63;;;2.63;;
62024;SDS011;47978;49.118;12.146;2023-07-13T22:39:39;2.33;;;1.95;;
62024;SDS011;47978;49.118;12.146;2023-07-13T22:43:41;4.05;;;2.38;;
62024;SDS011;47978;49.118;12.146;2023-07-13T22:47:44;4.23;;;2.20;;
62024;SDS011;47978;49.118;12.146;2023-07-13T22:55:47;4.22;;;2.45;;
62024;SDS011;47978;49.118;12.146;2023-07-13T22:59:49;4.15;;;2.33;;
62024;SDS011;47978;49.118;12.146;2023-07-13T23:03:53;2.97;;;2.25;;
62024;SDS011;47978;49.118;12.146;2023-07-13T23:07:56;3.30;;;2.67;;
62024;SDS011;47978;49.118;12.146;2023-07-13T23:11:57;7.20;;;2.65;;
62024;SDS011;47978;49.118;12.146;2023-07-13T23:16:00;4.82;;;2.00;;
62024;SDS011;47978;49.118;12.146;2023-07-13T23:20:04;4.18;;;2.40;;
62024;SDS011;47978;49.118;12.146;2023-07-13T23:24:14;2.47;;;1.80;;
62024;SDS011;47978;49.118;12.146;2023-07-13T23:28:16;2.90;;;2.17;;
62024;SDS011;47978;49.118;12.146;2023-07-13T23:32:17;2.72;;;2.30;;
62024;SDS011;47978;49.118;12.146;2023-07-13T23:36:20;4.70;;;2.38;;
62024;SDS011;47978;49.118;12.146;2023-07-13T23:40:23;3.60;;;2.50;;
62024;SDS011;47978;49.118;12.146;2023-07-13T23:44:26;7.10;;;2.40;;
62024;SDS011;47978;49.118;12.146;2023-07-13T23:48:28;4.88;;;2.15;;
62024;SDS011;47978;49.118;12.146;2023-07-13T23:52:31;3.50;;;2.13;;
62024;SDS011;47978;49.118;12.146;2023-07-13T23:56:33;3.53;;;2.40;;
